Time;durP1;ratioP1;P1;durP2;ratioP2;P2;SDS_P1;SDS_P2;PMS_P1;PMS_P2;Temp;Humidity;BMP_temperature;BMP_pressure;BME280_temperature;BME280_humidity;BME280_pressure;Samples;Min_cycle;Max_cycle;Signal;HPM_P1;HPM_P2
2022/07/23 00:00:02;;;;;;;8.75;5.13;;;;;;;;;;6186668;23;20020;-52
2022/07/23 00:02:30;;;;;;;10.20;4.95;;;;;;;;;;6177981;23;20100;-50
2022/07/23 00:04:57;;;;;;;9.20;4.60;;;;;;;;;;6199467;23;20017;-52
2022/07/23 00:07:23;;;;;;;9.82;4.63;;;;;;;;;;6210588;23;20013;-54
2022/07/23 00:09:50;;;;;;;9.95;5.03;;;;;;;;;;6200394;23;20073;-52
2022/07/23 00:12:16;;;;;;;11.82;4.93;;;;;;;;;;6202195;23;20510;-48
2022/07/23 00:14:43;;;;;;;12.77;5.22;;;;;;;;;;6176327;23;20108;-52
2022/07/23 00:17:09;;;;;;;14.48;5.07;;;;;;;;;;6200743;23;20338;-53
2022/07/23 00:19:37;;;;;;;18.02;5.07;;;;;;;;;;6204009;23;20088;-51
2022/07/23 00:22:05;;;;;;;9.07;4.60;;;;;;;;;;6177976;23;20028;-53
2022/07/23 00:24:32;;;;;;;8.00;5.03;;;;;;;;;;6201846;23;20075;-52
2022/07/23 00:26:58;;;;;;;10.65;5.30;;;;;;;;;;6196889;23;20063;-50
2022/07/23 00:29:25;;;;;;;9.20;5.20;;;;;;;;;;6191293;23;20016;-52
2022/07/23 00:31:52;;;;;;;14.80;5.13;;;;;;;;;;6195464;23;20063;-52
2022/07/23 00:34:18;;;;;;;8.10;4.30;;;;;;;;;;6188668;23;20027;-52
2022/07/23 00:36:47;;;;;;;10.98;4.40;;;;;;;;;;6194631;23;20524;-53
2022/07/23 00:39:13;;;;;;;13.38;5.57;;;;;;;;;;6191208;23;20072;-54
2022/07/23 00:41:40;;;;;;;11.20;4.63;;;;;;;;;;6203509;23;20393;-48
2022/07/23 00:44:16;;;;;;;13.75;5.25;;;;;;;;;;6166989;23;20089;-51
2022/07/23 00:46:46;;;;;;;10.95;5.35;;;;;;;;;;6196417;23;20013;-53
2022/07/23 00:49:13;;;;;;;13.85;5.13;;;;;;;;;;6206199;23;20013;-52
2022/07/23 00:51:39;;;;;;;15.98;5.32;;;;;;;;;;6190753;23;20285;-52
2022/07/23 00:54:07;;;;;;;9.50;4.20;;;;;;;;;;6194133;23;20463;-51
2022/07/23 00:56:35;;;;;;;15.85;4.60;;;;;;;;;;6174962;23;20020;-52
2022/07/23 00:59:01;;;;;;;11.82;5.90;;;;;;;;;;6201545;23;20048;-52
2022/07/23 01:01:28;;;;;;;12.30;4.80;;;;;;;;;;6200176;23;20041;-53
2022/07/23 01:03:54;;;;;;;12.50;4.80;;;;;;;;;;6206511;23;20009;-51
2022/07/23 01:06:21;;;;;;;18.90;5.05;;;;;;;;;;6197161;23;20017;-48
2022/07/23 01:08:48;;;;;;;12.00;4.93;;;;;;;;;;6204671;23;20417;-54
2022/07/23 01:11:16;;;;;;;13.90;4.85;;;;;;;;;;6198814;23;20012;-51
2022/07/23 01:13:43;;;;;;;8.68;4.55;;;;;;;;;;6202992;23;20016;-53
2022/07/23 01:16:10;;;;;;;17.55;5.13;;;;;;;;;;6190367;23;20047;-51
2022/07/23 01:18:36;;;;;;;9.35;4.30;;;;;;;;;;6204285;23;20043;-53
2022/07/23 01:21:03;;;;;;;10.57;4.80;;;;;;;;;;6178557;23;20038;-53
2022/07/23 01:23:31;;;;;;;14.70;5.07;;;;;;;;;;6186864;23;20455;-52
2022/07/23 01:25:58;;;;;;;19.00;5.78;;;;;;;;;;6205134;23;20043;-51
2022/07/23 01:28:25;;;;;;;9.25;5.07;;;;;;;;;;6200384;23;20556;-51
2022/07/23 01:30:51;;;;;;;12.25;4.88;;;;;;;;;;6201795;23;20019;-50
2022/07/23 01:33:17;;;;;;;16.55;5.55;;;;;;;;;;6207368;23;20024;-50
2022/07/23 01:35:44;;;;;;;13.82;5.55;;;;;;;;;;6199374;23;20013;-54
2022/07/23 01:38:10;;;;;;;10.82;5.80;;;;;;;;;;6194434;23;20016;-53
2022/07/23 01:40:38;;;;;;;13.90;6.28;;;;;;;;;;6202303;23;20024;-53
2022/07/23 01:43:05;;;;;;;18.33;5.32;;;;;;;;;;6203800;23;20016;-53
2022/07/23 01:45:31;;;;;;;7.88;5.00;;;;;;;;;;6200344;23;20013;-50
2022/07/23 01:47:58;;;;;;;10.50;5.28;;;;;;;;;;6172341;23;20021;-52
2022/07/23 01:50:24;;;;;;;11.52;6.28;;;;;;;;;;6201229;23;20016;-51
2022/07/23 01:52:51;;;;;;;15.23;5.50;;;;;;;;;;6207267;23;20483;-53
2022/07/23 01:55:17;;;;;;;8.45;4.88;;;;;;;;;;6191142;23;20017;-50
2022/07/23 01:57:45;;;;;;;9.68;5.28;;;;;;;;;;6200540;23;20020;-51
2022/07/23 02:00:12;;;;;;;15.18;4.88;;;;;;;;;;6205043;23;20034;-51
2022/07/23 02:02:39;;;;;;;13.27;6.00;;;;;;;;;;6181569;23;20455;-49
2022/07/23 02:05:06;;;;;;;13.10;5.32;;;;;;;;;;6202466;23;20510;-49
2022/07/23 02:07:35;;;;;;;11.73;5.85;;;;;;;;;;6190191;23;20020;-52
2022/07/23 02:10:02;;;;;;;;;;;;;;;;;;6176051;23;20016;-50
2022/07/23 02:12:28;;;;;;;9.15;5.20;;;;;;;;;;6199048;23;20014;-52
2022/07/23 02:14:56;;;;;;;9.95;4.90;;;;;;;;;;6200243;23;20466;-50
2022/07/23 02:17:22;;;;;;;10.75;5.53;;;;;;;;;;6197468;23;20012;-53
2022/07/23 02:19:49;;;;;;;9.00;5.78;;;;;;;;;;6193447;23;20340;-50
2022/07/23 02:22:15;;;;;;;11.23;5.40;;;;;;;;;;6201880;23;20023;-52
2022/07/23 02:24:42;;;;;;;12.95;6.10;;;;;;;;;;6208840;23;20031;-53
2022/07/23 02:27:09;;;;;;;11.85;5.07;;;;;;;;;;6207005;23;20083;-49
2022/07/23 02:29:35;;;;;;;10.98;5.93;;;;;;;;;;6198228;23;20330;-54
2022/07/23 02:32:07;;;;;;;8.50;5.55;;;;;;;;;;6206035;23;20012;-51
2022/07/23 02:34:34;;;;;;;7.75;5.38;;;;;;;;;;6203486;23;20016;-52
2022/07/23 02:37:00;;;;;;;11.45;5.55;;;;;;;;;;6196583;23;20012;-52
2022/07/23 02:39:27;;;;;;;14.00;5.95;;;;;;;;;;6207594;23;20020;-48
2022/07/23 02:41:53;;;;;;;12.00;5.65;;;;;;;;;;6197234;23;20019;-52
2022/07/23 02:44:20;;;;;;;11.40;6.03;;;;;;;;;;6203227;23;20024;-52
2022/07/23 02:46:46;;;;;;;13.07;5.78;;;;;;;;;;6193676;23;20519;-50
2022/07/23 02:49:14;;;;;;;14.98;5.65;;;;;;;;;;6205873;23;20027;-50
2022/07/23 02:51:41;;;;;;;10.95;5.85;;;;;;;;;;6199302;23;20024;-51
2022/07/23 02:54:07;;;;;;;10.50;5.80;;;;;;;;;;6201088;23;20016;-51
2022/07/23 02:56:34;;;;;;;14.52;6.22;;;;;;;;;;6174764;23;20017;-54
2022/07/23 02:59:01;;;;;;;15.38;5.53;;;;;;;;;;6200739;23;20509;-50
2022/07/23 03:01:28;;;;;;;10.40;6.43;;;;;;;;;;6198910;23;20796;-52
2022/07/23 03:03:55;;;;;;;9.55;6.32;;;;;;;;;;6200916;23;20597;-50
2022/07/23 03:06:22;;;;;;;10.43;5.45;;;;;;;;;;6172631;23;20013;-53
2022/07/23 03:08:49;;;;;;;12.73;6.10;;;;;;;;;;6201386;23;20039;-52
2022/07/23 03:11:16;;;;;;;11.82;5.97;;;;;;;;;;6202737;23;20012;-52
2022/07/23 03:13:42;;;;;;;12.25;6.70;;;;;;;;;;6198404;23;20127;-48
2022/07/23 03:16:09;;;;;;;12.82;5.88;;;;;;;;;;6206376;23;20648;-53
2022/07/23 03:18:35;;;;;;;12.30;6.60;;;;;;;;;;6192158;23;20047;-52
2022/07/23 03:21:02;;;;;;;11.00;7.00;;;;;;;;;;6202175;23;20047;-53
2022/07/23 03:23:30;;;;;;;15.32;6.70;;;;;;;;;;6199705;23;20021;-51
2022/07/23 03:25:56;;;;;;;10.73;6.47;;;;;;;;;;6187543;23;20351;-50
2022/07/23 03:28:23;;;;;;;11.00;6.40;;;;;;;;;;6204346;23;20039;-51
2022/07/23 03:30:49;;;;;;;11.50;7.03;;;;;;;;;;6205077;23;20016;-52
2022/07/23 03:33:17;;;;;;;19.98;7.90;;;;;;;;;;6207045;23;20035;-51
2022/07/23 03:35:43;;;;;;;14.30;6.57;;;;;;;;;;6200976;23;20360;-54
2022/07/23 03:38:10;;;;;;;12.48;7.05;;;;;;;;;;6208308;23;20040;-52
2022/07/23 03:40:38;;;;;;;13.75;6.80;;;;;;;;;;6195947;23;20025;-54
2022/07/23 03:43:04;;;;;;;14.82;6.80;;;;;;;;;;6203757;23;20037;-53
2022/07/23 03:45:33;;;;;;;12.65;7.03;;;;;;;;;;6195611;23;20485;-53
2022/07/23 03:48:00;;;;;;;;;;;;;;;;;;6192700;23;20017;-51
2022/07/23 03:50:27;;;;;;;11.25;6.53;;;;;;;;;;6167730;23;19919;-52
2022/07/23 03:52:53;;;;;;;13.38;6.95;;;;;;;;;;6207602;23;20027;-55
2022/07/23 03:55:20;;;;;;;13.10;6.38;;;;;;;;;;6201003;23;20130;-52
2022/07/23 03:57:48;;;;;;;13.55;7.55;;;;;;;;;;6202811;23;20491;-51
2022/07/23 04:00:15;;;;;;;9.85;6.90;;;;;;;;;;6207945;23;20012;-53
2022/07/23 04:02:41;;;;;;;11.73;6.70;;;;;;;;;;6198882;23;20036;-53
2022/07/23 04:05:08;;;;;;;13.43;6.13;;;;;;;;;;6207683;23;20039;-54
2022/07/23 04:07:35;;;;;;;12.32;6.50;;;;;;;;;;6199338;23;20016;-51
2022/07/23 04:10:01;;;;;;;10.85;6.22;;;;;;;;;;6210895;23;20016;-52
2022/07/23 04:12:28;;;;;;;11.98;6.65;;;;;;;;;;6198952;23;20012;-55
2022/07/23 04:14:56;;;;;;;10.25;6.32;;;;;;;;;;6198249;23;20020;-52
2022/07/23 04:17:23;;;;;;;8.52;5.60;;;;;;;;;;6197276;23;20013;-52
2022/07/23 04:19:49;;;;;;;10.00;6.00;;;;;;;;;;6206172;23;20318;-49
2022/07/23 04:22:16;;;;;;;8.15;6.22;;;;;;;;;;6202579;23;20023;-52
2022/07/23 04:24:42;;;;;;;12.65;6.72;;;;;;;;;;6203372;23;20020;-51
2022/07/23 04:27:09;;;;;;;11.27;6.00;;;;;;;;;;6209208;23;20028;-52
2022/07/23 04:29:35;;;;;;;10.77;5.80;;;;;;;;;;6198485;23;20012;-50
2022/07/23 04:32:03;;;;;;;10.63;6.35;;;;;;;;;;6210885;23;20016;-56
2022/07/23 04:34:30;;;;;;;13.88;5.85;;;;;;;;;;6198976;23;20074;-54
2022/07/23 04:36:57;;;;;;;15.82;5.88;;;;;;;;;;6208940;23;20024;-52
2022/07/23 04:39:23;;;;;;;12.60;5.72;;;;;;;;;;6195909;23;20012;-51
2022/07/23 04:41:50;;;;;;;10.75;7.07;;;;;;;;;;6206943;23;20016;-53
2022/07/23 04:44:17;;;;;;;9.07;5.57;;;;;;;;;;6174361;23;20016;-52
2022/07/23 04:46:43;;;;;;;11.82;6.78;;;;;;;;;;6205411;23;20036;-52
2022/07/23 04:49:11;;;;;;;14.25;6.43;;;;;;;;;;6174320;23;20084;-52
2022/07/23 04:51:38;;;;;;;13.63;6.10;;;;;;;;;;6188427;23;20021;-54
2022/07/23 04:54:04;;;;;;;13.80;6.05;;;;;;;;;;6198207;23;20017;-51
2022/07/23 04:56:31;;;;;;;9.75;6.18;;;;;;;;;;6205850;23;20021;-51
2022/07/23 04:58:58;;;;;;;11.52;6.10;;;;;;;;;;6204667;23;20023;-51
2022/07/23 05:01:24;;;;;;;9.95;6.63;;;;;;;;;;6203472;23;20020;-50
2022/07/23 05:03:51;;;;;;;9.77;5.32;;;;;;;;;;6204662;23;20013;-53
2022/07/23 05:06:19;;;;;;;9.70;5.95;;;;;;;;;;6195045;23;20027;-51
2022/07/23 05:08:45;;;;;;;11.75;5.80;;;;;;;;;;6202353;23;20012;-52
2022/07/23 05:11:12;;;;;;;10.38;6.20;;;;;;;;;;6200844;23;20013;-52
2022/07/23 05:13:39;;;;;;;10.02;5.82;;;;;;;;;;6203376;23;20016;-52
2022/07/23 05:16:05;;;;;;;13.30;5.60;;;;;;;;;;6196387;23;20020;-52
2022/07/23 05:18:32;;;;;;;14.63;5.93;;;;;;;;;;6203761;23;20013;-52
2022/07/23 05:20:58;;;;;;;7.03;5.32;;;;;;;;;;6202317;23;20024;-52
2022/07/23 05:23:26;;;;;;;9.05;5.93;;;;;;;;;;6208546;23;20032;-51
2022/07/23 05:25:53;;;;;;;9.73;5.55;;;;;;;;;;6194546;23;20023;-53
2022/07/23 05:28:20;;;;;;;10.05;5.80;;;;;;;;;;6204791;23;20032;-53
2022/07/23 05:30:46;;;;;;;9.23;6.05;;;;;;;;;;6194213;23;20459;-55
2022/07/23 05:33:13;;;;;;;7.57;6.05;;;;;;;;;;6206769;23;20013;-51
2022/07/23 05:35:39;;;;;;;11.55;5.53;;;;;;;;;;6193789;23;20640;-52
2022/07/23 05:38:06;;;;;;;11.45;6.88;;;;;;;;;;6206151;23;20012;-52
2022/07/23 05:40:34;;;;;;;8.13;5.70;;;;;;;;;;6195735;23;20016;-49
2022/07/23 05:43:00;;;;;;;16.10;6.78;;;;;;;;;;6207306;23;20016;-50
2022/07/23 05:45:27;;;;;;;9.25;5.65;;;;;;;;;;6195824;23;20232;-48
2022/07/23 05:47:53;;;;;;;9.90;6.15;;;;;;;;;;6208834;23;20012;-51
2022/07/23 05:50:20;;;;;;;10.23;5.50;;;;;;;;;;6188789;23;20528;-51
2022/07/23 05:52:47;;;;;;;7.00;5.63;;;;;;;;;;6205375;23;20519;-54
2022/07/23 05:55:13;;;;;;;9.10;5.45;;;;;;;;;;6204396;23;20040;-54
2022/07/23 05:57:41;;;;;;;9.38;6.25;;;;;;;;;;6200550;23;20068;-52
2022/07/23 06:00:09;;;;;;;8.52;5.97;;;;;;;;;;6194970;23;20017;-52
2022/07/23 06:02:36;;;;;;;7.68;5.75;;;;;;;;;;6208777;23;20028;-51
2022/07/23 06:05:02;;;;;;;10.45;5.95;;;;;;;;;;6195899;23;20040;-51
2022/07/23 06:07:29;;;;;;;9.57;5.30;;;;;;;;;;6196830;23;20021;-49
2022/07/23 06:09:55;;;;;;;9.57;5.05;;;;;;;;;;6200196;23;20024;-55
2022/07/23 06:12:22;;;;;;;7.10;5.32;;;;;;;;;;6204575;23;20050;-52
2022/07/23 06:14:51;;;;;;;17.08;6.20;;;;;;;;;;6196150;23;20013;-54
2022/07/23 06:17:18;;;;;;;;;;;;;;;;;;6203637;23;20032;-51
2022/07/23 06:19:45;;;;;;;15.00;6.15;;;;;;;;;;6198615;23;19916;-54
2022/07/23 06:22:11;;;;;;;11.00;6.00;;;;;;;;;;6203769;23;20025;-51
2022/07/23 06:24:38;;;;;;;11.35;6.30;;;;;;;;;;6194843;23;20421;-51
2022/07/23 06:27:05;;;;;;;9.98;5.88;;;;;;;;;;6203999;23;20075;-53
2022/07/23 06:29:31;;;;;;;8.48;6.00;;;;;;;;;;6196709;23;20016;-54
2022/07/23 06:31:59;;;;;;;9.25;5.22;;;;;;;;;;6207329;23;20021;-54
2022/07/23 06:34:26;;;;;;;12.38;6.15;;;;;;;;;;6194404;23;20015;-53
2022/07/23 06:36:53;;;;;;;7.55;5.70;;;;;;;;;;6206364;23;20020;-50
2022/07/23 06:39:20;;;;;;;7.47;5.63;;;;;;;;;;6196918;23;20016;-53
2022/07/23 06:41:46;;;;;;;14.00;6.30;;;;;;;;;;6205634;23;20478;-52
2022/07/23 06:44:13;;;;;;;9.52;5.38;;;;;;;;;;6190041;23;20013;-53
2022/07/23 06:46:40;;;;;;;9.88;5.50;;;;;;;;;;6205643;23;20525;-52
2022/07/23 06:49:08;;;;;;;9.43;5.93;;;;;;;;;;6196268;23;20012;-53
2022/07/23 06:51:34;;;;;;;9.52;5.85;;;;;;;;;;6201756;23;20017;-52
2022/07/23 06:54:01;;;;;;;11.63;5.50;;;;;;;;;;6196504;23;20017;-54
2022/07/23 06:56:28;;;;;;;11.95;6.68;;;;;;;;;;6203790;23;20013;-55
2022/07/23 06:58:54;;;;;;;11.63;6.05;;;;;;;;;;6195520;23;20016;-52
2022/07/23 07:01:21;;;;;;;13.55;6.00;;;;;;;;;;6203350;23;20283;-53
2022/07/23 07:03:48;;;;;;;8.85;5.60;;;;;;;;;;6204632;23;20016;-52
2022/07/23 07:06:16;;;;;;;10.02;5.88;;;;;;;;;;6198627;23;20016;-51
2022/07/23 07:08:42;;;;;;;7.68;5.63;;;;;;;;;;6203546;23;20017;-52
2022/07/23 07:11:09;;;;;;;9.73;5.13;;;;;;;;;;6167305;23;20013;-54
2022/07/23 07:13:36;;;;;;;8.15;5.65;;;;;;;;;;6198610;23;20096;-50
2022/07/23 07:16:04;;;;;;;6.88;4.80;;;;;;;;;;6175008;23;20017;-51
2022/07/23 07:18:30;;;;;;;9.15;5.57;;;;;;;;;;6197886;23;20016;-53
2022/07/23 07:20:59;;;;;;;12.75;6.78;;;;;;;;;;6201911;23;20023;-52
2022/07/23 07:23:27;;;;;;;8.43;5.77;;;;;;;;;;6208910;23;20063;-51
2022/07/23 07:25:54;;;;;;;7.10;5.35;;;;;;;;;;6201826;23;20292;-51
2022/07/23 07:28:21;;;;;;;10.20;5.38;;;;;;;;;;6204481;23;20016;-52
2022/07/23 07:30:48;;;;;;;6.25;5.22;;;;;;;;;;6201831;23;20016;-51
2022/07/23 07:33:14;;;;;;;11.40;5.60;;;;;;;;;;6202830;23;20087;-54
2022/07/23 07:35:43;;;;;;;9.63;4.18;;;;;;;;;;6195765;23;20021;-52
2022/07/23 07:38:10;;;;;;;4.75;3.95;;;;;;;;;;6206386;23;20080;-52
2022/07/23 07:40:38;;;;;;;8.55;4.45;;;;;;;;;;6164104;23;20473;-51
2022/07/23 07:43:04;;;;;;;6.25;4.28;;;;;;;;;;6178538;23;20107;-52
2022/07/23 07:45:31;;;;;;;5.97;4.05;;;;;;;;;;6197713;23;20020;-50
2022/07/23 07:47:58;;;;;;;6.13;4.10;;;;;;;;;;6204968;23;20012;-52
2022/07/23 07:50:24;;;;;;;6.43;4.55;;;;;;;;;;6196895;23;20019;-55
2022/07/23 07:52:51;;;;;;;6.40;4.22;;;;;;;;;;6202144;23;20021;-53
2022/07/23 07:55:18;;;;;;;8.20;4.13;;;;;;;;;;6198836;23;20012;-54
2022/07/23 07:57:46;;;;;;;5.72;4.65;;;;;;;;;;6180032;23;20080;-54
2022/07/23 08:00:13;;;;;;;3.72;3.42;;;;;;;;;;6193720;23;20071;-51
2022/07/23 08:02:43;;;;;;;5.78;4.45;;;;;;;;;;6209078;23;20291;-53
2022/07/23 08:05:10;;;;;;;4.47;4.07;;;;;;;;;;6163665;23;20012;-55
2022/07/23 08:07:37;;;;;;;8.80;4.55;;;;;;;;;;6203007;23;20456;-53
2022/07/23 08:10:04;;;;;;;5.35;3.80;;;;;;;;;;6195910;23;20013;-51
2022/07/23 08:12:38;;;;;;;5.35;4.00;;;;;;;;;;6204177;23;20063;-55
2022/07/23 08:15:07;;;;;;;8.40;4.03;;;;;;;;;;6192010;23;20068;-52
2022/07/23 08:17:33;;;;;;;5.63;3.70;;;;;;;;;;6203873;23;20493;-53
2022/07/23 08:19:59;;;;;;;6.30;4.47;;;;;;;;;;6193511;23;20013;-54
2022/07/23 08:22:26;;;;;;;7.60;3.53;;;;;;;;;;6201193;23;20020;-53
2022/07/23 08:24:52;;;;;;;4.97;2.92;;;;;;;;;;6172919;23;20012;-52
2022/07/23 08:27:20;;;;;;;4.57;2.60;;;;;;;;;;6191049;23;20017;-53
2022/07/23 08:29:46;;;;;;;3.20;2.60;;;;;;;;;;6185359;23;20013;-53
2022/07/23 08:32:14;;;;;;;5.07;2.67;;;;;;;;;;6202162;23;20016;-51
2022/07/23 08:34:41;;;;;;;4.30;2.22;;;;;;;;;;6177594;23;20016;-53
2022/07/23 08:37:07;;;;;;;4.53;2.67;;;;;;;;;;6198081;23;20016;-53
2022/07/23 08:39:34;;;;;;;3.05;2.38;;;;;;;;;;6202183;23;20039;-52
2022/07/23 08:42:00;;;;;;;2.47;2.28;;;;;;;;;;6187826;23;20091;-54
2022/07/23 08:44:27;;;;;;;3.90;3.35;;;;;;;;;;6206373;23;20016;-54
2022/07/23 08:46:53;;;;;;;6.20;4.00;;;;;;;;;;6195516;23;20012;-56
2022/07/23 08:49:21;;;;;;;7.43;3.33;;;;;;;;;;6184570;23;20013;-53
2022/07/23 08:51:48;;;;;;;2.92;2.72;;;;;;;;;;6186802;23;20446;-53
2022/07/23 08:54:14;;;;;;;4.68;2.47;;;;;;;;;;6207988;23;20020;-55
2022/07/23 08:56:41;;;;;;;3.22;2.13;;;;;;;;;;6201338;23;20016;-55
2022/07/23 08:59:08;;;;;;;4.53;2.60;;;;;;;;;;6206262;23;20025;-56
2022/07/23 09:01:34;;;;;;;4.82;3.20;;;;;;;;;;6200460;23;20040;-56
2022/07/23 09:04:02;;;;;;;4.85;3.03;;;;;;;;;;6195221;23;20056;-55
2022/07/23 09:06:30;;;;;;;4.47;2.63;;;;;;;;;;6199157;23;20091;-54
2022/07/23 09:08:57;;;;;;;5.88;3.15;;;;;;;;;;6198664;23;20016;-54
2022/07/23 09:11:23;;;;;;;3.05;2.60;;;;;;;;;;6201915;23;20075;-56
2022/07/23 09:13:52;;;;;;;3.33;2.85;;;;;;;;;;6192549;23;20027;-53
2022/07/23 09:16:20;;;;;;;9.87;2.80;;;;;;;;;;6199529;23;20040;-55
2022/07/23 09:18:47;;;;;;;3.85;2.67;;;;;;;;;;6198616;23;20245;-52
2022/07/23 09:21:15;;;;;;;2.88;2.03;;;;;;;;;;6198630;23;20016;-54
2022/07/23 09:23:44;;;;;;;3.22;2.03;;;;;;;;;;6204320;23;20021;-54
2022/07/23 09:26:21;;;;;;;5.03;2.85;;;;;;;;;;6191434;23;20013;-52
2022/07/23 09:28:53;;;;;;;4.90;1.98;;;;;;;;;;6193521;23;20020;-52
2022/07/23 09:31:20;;;;;;;5.82;2.45;;;;;;;;;;6200605;23;20017;-53
2022/07/23 09:33:47;;;;;;;3.30;2.00;;;;;;;;;;6192361;23;20027;-54
2022/07/23 09:36:14;;;;;;;3.65;2.33;;;;;;;;;;6177618;23;20016;-54
2022/07/23 09:38:50;;;;;;;2.60;1.90;;;;;;;;;;6182782;23;20017;-55
2022/07/23 09:41:17;;;;;;;2.85;1.70;;;;;;;;;;6202009;23;20020;-54
2022/07/23 09:43:43;;;;;;;3.03;1.83;;;;;;;;;;6188795;23;20021;-51
2022/07/23 09:46:20;;;;;;;1.67;1.58;;;;;;;;;;6194848;23;20424;-55
2022/07/23 09:48:47;;;;;;;2.85;1.35;;;;;;;;;;6196788;23;20565;-54
2022/07/23 09:51:14;;;;;;;2.63;1.50;;;;;;;;;;6196772;23;20013;-54
2022/07/23 09:53:41;;;;;;;2.17;1.50;;;;;;;;;;6203436;23;20023;-53
2022/07/23 09:56:09;;;;;;;3.55;1.38;;;;;;;;;;6202218;23;20016;-54
2022/07/23 09:58:44;;;;;;;7.43;1.80;;;;;;;;;;6197184;23;20092;-52
2022/07/23 10:01:11;;;;;;;1.02;0.93;;;;;;;;;;6208353;23;20466;-53
2022/07/23 10:03:38;;;;;;;1.38;1.25;;;;;;;;;;6207458;23;20020;-53
2022/07/23 10:06:05;;;;;;;1.58;1.33;;;;;;;;;;6196456;23;20017;-51
2022/07/23 10:08:32;;;;;;;3.42;1.50;;;;;;;;;;6195962;23;20012;-49
2022/07/23 10:11:01;;;;;;;2.78;1.25;;;;;;;;;;6179909;23;20017;-54
2022/07/23 10:16:14;;;;;;;1.50;1.10;;;;;;;;;;6181845;23;20483;-54
2022/07/23 10:18:40;;;;;;;2.35;1.70;;;;;;;;;;6182978;23;20431;-53
2022/07/23 10:21:09;;;;;;;1.33;1.17;;;;;;;;;;6171086;23;20027;-51
2022/07/23 10:23:40;;;;;;;2.87;1.50;;;;;;;;;;6174751;23;20047;-55
2022/07/23 10:26:20;;;;;;;1.90;1.10;;;;;;;;;;6180255;23;20043;-52
2022/07/23 10:29:02;;;;;;;2.53;1.40;;;;;;;;;;6193795;23;20035;-55
2022/07/23 10:31:38;;;;;;;2.08;1.27;;;;;;;;;;6203800;23;20037;-52
2022/07/23 10:34:13;;;;;;;5.32;1.35;;;;;;;;;;6199581;23;20023;-54
2022/07/23 10:36:43;;;;;;;1.48;1.25;;;;;;;;;;6203485;23;20335;-55
2022/07/23 10:39:15;;;;;;;1.83;1.05;;;;;;;;;;6174213;23;20017;-53
2022/07/23 10:42:01;;;;;;;1.30;1.20;;;;;;;;;;6175773;23;20023;-56
2022/07/23 10:44:38;;;;;;;5.07;1.27;;;;;;;;;;6201073;23;20028;-54
2022/07/23 10:47:34;;;;;;;0.90;0.90;;;;;;;;;;6172224;23;20099;-54
2022/07/23 10:50:16;;;;;;;0.93;0.85;;;;;;;;;;6201620;23;20027;-55
2022/07/23 10:52:42;;;;;;;1.48;1.10;;;;;;;;;;6201301;23;20099;-52
2022/07/23 10:55:27;;;;;;;1.30;1.02;;;;;;;;;;6201743;23;20036;-54
2022/07/23 10:57:53;;;;;;;1.52;1.00;;;;;;;;;;6179555;23;20020;-52
2022/07/23 11:00:25;;;;;;;1.08;0.80;;;;;;;;;;6190227;23;20575;-53
2022/07/23 11:02:52;;;;;;;1.48;1.10;;;;;;;;;;6210466;23;20051;-60
2022/07/23 11:05:20;;;;;;;2.75;1.30;;;;;;;;;;6183996;23;20375;-56
2022/07/23 11:08:16;;;;;;;1.02;0.98;;;;;;;;;;6203317;23;20012;-55
2022/07/23 11:10:44;;;;;;;1.85;1.23;;;;;;;;;;6119968;23;20473;-52
2022/07/23 11:13:27;;;;;;;1.13;1.02;;;;;;;;;;6182708;23;20023;-52
2022/07/23 11:16:10;;;;;;;2.53;1.10;;;;;;;;;;6187558;23;20456;-52
2022/07/23 11:19:12;;;;;;;1.55;0.90;;;;;;;;;;6196918;23;20012;-53
2022/07/23 11:21:42;;;;;;;1.25;1.08;;;;;;;;;;6043630;23;20035;-50
2022/07/23 11:24:10;;;;;;;1.30;1.20;;;;;;;;;;6042888;23;20163;-53
2022/07/23 11:26:44;;;;;;;1.20;1.10;;;;;;;;;;6115297;23;20024;-52
2022/07/23 11:29:27;;;;;;;2.53;0.95;;;;;;;;;;6161820;23;20441;-55
2022/07/23 11:31:56;;;;;;;1.05;0.95;;;;;;;;;;6180757;23;20055;-53
2022/07/23 11:34:28;;;;;;;0.60;0.60;;;;;;;;;;6201075;23;20017;-52
2022/07/23 11:36:55;;;;;;;1.42;1.08;;;;;;;;;;6158636;23;20017;-55
2022/07/23 11:39:22;;;;;;;1.05;0.90;;;;;;;;;;6197515;23;20013;-54
2022/07/23 11:41:49;;;;;;;1.15;1.05;;;;;;;;;;6191996;23;20013;-53
2022/07/23 11:44:25;;;;;;;1.73;1.08;;;;;;;;;;6188264;23;20343;-52
2022/07/23 11:46:57;;;;;;;0.60;0.60;;;;;;;;;;6180171;23;20043;-52
2022/07/23 11:49:24;;;;;;;1.58;1.20;;;;;;;;;;6197473;23;20059;-54
2022/07/23 11:52:03;;;;;;;1.40;1.30;;;;;;;;;;6195112;23;20016;-54
2022/07/23 11:54:30;;;;;;;1.23;1.10;;;;;;;;;;6205215;23;20020;-53
2022/07/23 11:56:57;;;;;;;2.08;1.27;;;;;;;;;;6210477;23;20474;-50
2022/07/23 11:59:27;;;;;;;5.97;1.20;;;;;;;;;;6207463;23;20442;-51
2022/07/23 12:01:58;;;;;;;0.70;0.70;;;;;;;;;;6199621;23;20024;-54
2022/07/23 12:04:28;;;;;;;1.65;1.20;;;;;;;;;;6189029;23;20524;-55
2022/07/23 12:06:57;;;;;;;1.50;0.80;;;;;;;;;;6172133;23;20071;-53
2022/07/23 12:09:25;;;;;;;2.35;1.30;;;;;;;;;;6168175;23;20622;-54
2022/07/23 12:11:57;;;;;;;0.90;0.90;;;;;;;;;;6171479;23;20059;-53
2022/07/23 12:14:31;;;;;;;1.20;1.10;;;;;;;;;;6169908;23;20445;-53
2022/07/23 12:17:09;;;;;;;1.55;0.80;;;;;;;;;;6173284;23;20051;-55
2022/07/23 12:19:36;;;;;;;1.50;1.00;;;;;;;;;;6172932;23;20013;-54
2022/07/23 12:22:05;;;;;;;0.95;0.90;;;;;;;;;;6178027;23;20308;-55
2022/07/23 12:24:31;;;;;;;2.40;1.10;;;;;;;;;;6171654;23;20044;-55
2022/07/23 12:27:10;;;;;;;1.95;0.95;;;;;;;;;;6176184;23;20098;-54
2022/07/23 12:29:37;;;;;;;3.03;1.17;;;;;;;;;;6177246;23;20016;-51
2022/07/23 12:32:15;;;;;;;1.40;1.13;;;;;;;;;;6192552;23;20023;-53
2022/07/23 12:34:43;;;;;;;1.50;1.40;;;;;;;;;;6204176;23;20047;-52
2022/07/23 12:37:25;;;;;;;1.30;1.20;;;;;;;;;;6200516;23;20055;-55
2022/07/23 12:39:51;;;;;;;1.23;1.13;;;;;;;;;;6204806;23;20013;-52
2022/07/23 12:42:18;;;;;;;1.38;1.27;;;;;;;;;;6199255;23;20024;-54
2022/07/23 12:45:00;;;;;;;1.23;1.13;;;;;;;;;;6203395;23;20020;-54
2022/07/23 12:47:26;;;;;;;1.17;0.88;;;;;;;;;;6198117;23;20141;-52
2022/07/23 12:49:54;;;;;;;3.25;0.80;;;;;;;;;;6199504;23;20012;-53
2022/07/23 12:52:21;;;;;;;0.77;0.77;;;;;;;;;;6203330;23;20027;-52
2022/07/23 12:54:48;;;;;;;1.13;1.02;;;;;;;;;;6199734;23;20020;-52
2022/07/23 12:57:14;;;;;;;3.80;1.30;;;;;;;;;;6205665;23;20067;-55
2022/07/23 12:59:41;;;;;;;1.50;1.30;;;;;;;;;;6195362;23;20020;-53
2022/07/23 13:02:09;;;;;;;1.60;1.50;;;;;;;;;;6201218;23;20095;-54
2022/07/23 13:04:35;;;;;;;1.92;1.38;;;;;;;;;;6204175;23;20036;-54
2022/07/23 13:07:03;;;;;;;2.95;1.27;;;;;;;;;;6201195;23;20258;-53
2022/07/23 13:09:31;;;;;;;3.72;1.13;;;;;;;;;;6200412;23;20016;-53
2022/07/23 13:11:58;;;;;;;7.85;1.27;;;;;;;;;;6193265;23;20013;-54
2022/07/23 13:14:25;;;;;;;1.83;1.70;;;;;;;;;;6180460;23;20294;-55
2022/07/23 13:16:52;;;;;;;2.92;1.40;;;;;;;;;;6176304;23;20013;-55
2022/07/23 13:19:21;;;;;;;1.63;1.30;;;;;;;;;;6198377;23;20023;-52
2022/07/23 13:21:49;;;;;;;2.85;1.42;;;;;;;;;;6202390;23;20257;-55
2022/07/23 13:24:17;;;;;;;1.48;1.08;;;;;;;;;;6177749;23;20039;-54
2022/07/23 13:26:43;;;;;;;1.88;1.35;;;;;;;;;;6195300;23;20017;-54
2022/07/23 13:29:10;;;;;;;1.80;1.38;;;;;;;;;;6194083;23;20103;-54
2022/07/23 13:31:37;;;;;;;1.42;1.30;;;;;;;;;;6195078;23;20021;-55
2022/07/23 13:34:04;;;;;;;1.98;1.20;;;;;;;;;;6201885;23;20012;-52
2022/07/23 13:36:30;;;;;;;1.65;1.35;;;;;;;;;;6191678;23;20013;-53
2022/07/23 13:38:57;;;;;;;3.03;1.42;;;;;;;;;;6205442;23;20314;-55
2022/07/23 13:41:25;;;;;;;3.58;1.45;;;;;;;;;;6197184;23;20020;-54
2022/07/23 13:43:51;;;;;;;3.72;1.17;;;;;;;;;;6204779;23;20024;-55
2022/07/23 13:46:19;;;;;;;1.27;1.05;;;;;;;;;;6191071;23;20024;-53
2022/07/23 13:48:45;;;;;;;1.58;1.15;;;;;;;;;;6201252;23;20017;-53
2022/07/23 13:51:12;;;;;;;1.67;1.10;;;;;;;;;;6197744;23;20016;-55
2022/07/23 13:53:39;;;;;;;2.25;1.17;;;;;;;;;;6202526;23;20441;-56
2022/07/23 13:56:06;;;;;;;1.48;1.10;;;;;;;;;;6199546;23;20047;-55
2022/07/23 13:58:34;;;;;;;1.52;1.13;;;;;;;;;;6199167;23;20016;-53
2022/07/23 14:01:00;;;;;;;1.10;1.00;;;;;;;;;;6113635;23;20460;-52
2022/07/23 14:03:27;;;;;;;2.05;1.15;;;;;;;;;;6186382;23;20024;-54
2022/07/23 14:05:53;;;;;;;4.50;1.50;;;;;;;;;;6196950;23;20028;-54
2022/07/23 14:08:20;;;;;;;1.65;1.13;;;;;;;;;;6192259;23;20047;-53
2022/07/23 14:10:46;;;;;;;3.03;1.35;;;;;;;;;;6203363;23;20013;-54
2022/07/23 14:13:13;;;;;;;3.15;1.40;;;;;;;;;;6191264;23;20017;-54
2022/07/23 14:15:42;;;;;;;1.27;1.17;;;;;;;;;;6200458;23;20169;-55
2022/07/23 14:18:08;;;;;;;1.55;1.45;;;;;;;;;;6201059;23;20547;-53
2022/07/23 14:20:35;;;;;;;1.65;1.23;;;;;;;;;;6196699;23;20377;-51
2022/07/23 14:23:02;;;;;;;3.00;1.50;;;;;;;;;;6204180;23;20012;-55
2022/07/23 14:25:28;;;;;;;2.28;1.20;;;;;;;;;;6189257;23;20016;-54
2022/07/23 14:27:55;;;;;;;3.67;1.60;;;;;;;;;;6198506;23;20024;-54
2022/07/23 14:30:22;;;;;;;2.10;1.40;;;;;;;;;;6194879;23;20016;-53
2022/07/23 14:32:50;;;;;;;2.60;1.80;;;;;;;;;;6198405;23;20041;-53
2022/07/23 14:35:19;;;;;;;1.35;1.13;;;;;;;;;;6201158;23;20024;-54
2022/07/23 14:37:45;;;;;;;3.08;1.65;;;;;;;;;;6201125;23;20025;-58
2022/07/23 14:40:12;;;;;;;2.40;1.60;;;;;;;;;;6163229;23;20027;-53
2022/07/23 14:42:38;;;;;;;1.95;1.50;;;;;;;;;;6194402;23;20110;-54
2022/07/23 14:45:06;;;;;;;5.82;1.58;;;;;;;;;;6196463;23;20107;-53
2022/07/23 14:47:33;;;;;;;1.77;1.38;;;;;;;;;;6196844;23;20016;-54